createdAt,value
2017-08-23T08:45:47.770Z,41.90
2017-08-23T08:48:15.268Z,41.70
2017-08-23T08:50:42.742Z,39.80
2017-08-23T08:53:10.226Z,38.80
2017-08-23T08:55:37.724Z,39.20
2017-08-23T08:58:05.188Z,39.10
2017-08-23T09:00:32.683Z,38.80
2017-08-23T09:03:00.181Z,40.00
2017-08-23T09:05:27.678Z,40.10
2017-08-23T09:07:55.159Z,39.30
2017-08-23T09:10:22.635Z,38.60
2017-08-23T09:12:50.126Z,39.10
2017-08-23T09:15:17.599Z,39.40
2017-08-23T09:17:45.107Z,39.70
2017-08-23T09:20:12.595Z,40.70
2017-08-23T09:22:40.081Z,40.00
2017-08-23T09:25:07.579Z,40.50
2017-08-23T09:27:35.070Z,40.40
2017-08-23T09:30:02.550Z,39.50
2017-08-23T09:32:30.023Z,39.80
2017-08-23T09:34:58.259Z,39.80
2017-08-23T09:37:25.766Z,39.50
2017-08-23T09:39:53.269Z,39.00
2017-08-23T09:42:20.735Z,38.70
2017-08-23T09:44:48.279Z,39.80
2017-08-23T09:47:15.770Z,38.60
2017-08-23T09:49:43.275Z,39.50
2017-08-23T09:52:10.738Z,38.00
2017-08-23T09:54:38.240Z,40.10
2017-08-23T09:57:05.748Z,38.50
2017-08-23T09:59:33.235Z,39.80
2017-08-23T10:02:00.729Z,40.90
2017-08-23T10:04:28.211Z,40.00
2017-08-23T10:06:55.721Z,40.10
2017-08-23T10:09:23.219Z,39.90
2017-08-23T10:11:50.721Z,40.60
2017-08-23T10:14:18.217Z,39.40
2017-08-23T10:16:45.727Z,41.30
2017-08-23T10:19:13.219Z,39.70
2017-08-23T10:21:40.679Z,40.80
2017-08-23T10:24:08.864Z,41.60
2017-08-23T10:26:36.350Z,40.40
2017-08-23T10:29:04.595Z,40.70
2017-08-23T10:31:32.071Z,40.70
2017-08-23T10:33:59.570Z,40.30
2017-08-23T10:36:27.063Z,40.30
2017-08-23T10:38:54.568Z,41.70
2017-08-23T10:41:22.030Z,41.70
2017-08-23T10:43:49.583Z,40.70
2017-08-23T10:46:17.083Z,41.20
2017-08-23T10:48:44.583Z,40.40
2017-08-23T10:51:12.071Z,40.20
2017-08-23T10:53:39.570Z,40.90
2017-08-23T10:56:07.062Z,40.20
2017-08-23T10:58:34.543Z,41.10
2017-08-23T11:01:02.121Z,41.60
2017-08-23T11:03:29.595Z,41.40
2017-08-23T11:05:57.067Z,41.60
2017-08-23T11:08:24.571Z,40.50
2017-08-23T11:10:52.070Z,41.60
2017-08-23T11:13:19.535Z,40.90
2017-08-23T11:15:47.012Z,40.80
2017-08-23T11:18:14.511Z,41.40
2017-08-23T11:20:41.962Z,42.30
2017-08-23T11:23:10.221Z,41.60
2017-08-23T11:25:37.679Z,41.60
2017-08-23T11:28:05.173Z,41.00
2017-08-23T11:30:32.661Z,41.60
2017-08-23T11:33:00.146Z,40.20
2017-08-23T11:35:27.635Z,40.50
2017-08-23T11:37:55.109Z,42.40
2017-08-23T11:40:22.623Z,40.20
2017-08-23T11:42:50.107Z,40.90
2017-08-23T11:45:17.578Z,41.10
2017-08-23T11:47:45.055Z,40.90
2017-08-23T11:50:12.550Z,41.60
2017-08-23T11:52:40.062Z,41.10
2017-08-23T11:55:07.520Z,42.40
2017-08-23T11:57:35.011Z,41.10
2017-08-23T12:00:02.516Z,39.90
2017-08-23T12:02:29.970Z,41.20
2017-08-23T12:04:57.468Z,41.90
2017-08-23T12:07:24.972Z,40.60
2017-08-23T12:09:52.444Z,41.10
2017-08-23T12:12:19.924Z,40.70
2017-08-23T12:14:47.411Z,41.40
2017-08-23T12:17:14.921Z,39.90
2017-08-23T12:19:42.383Z,40.70
2017-08-23T12:22:09.894Z,41.10
2017-08-23T12:24:37.358Z,41.00
2017-08-23T12:27:04.815Z,40.80
2017-08-23T12:29:32.353Z,41.40
2017-08-23T12:31:59.817Z,41.20
2017-08-23T12:34:27.300Z,40.30
2017-08-23T12:36:54.762Z,40.80
2017-08-23T12:39:22.271Z,41.30
2017-08-23T12:41:49.732Z,41.40
2017-08-23T12:44:17.206Z,41.30
2017-08-23T12:46:44.712Z,41.80
2017-08-23T12:49:12.200Z,41.40
2017-08-23T12:51:39.672Z,41.00
2017-08-23T12:54:07.183Z,40.10
2017-08-23T12:56:34.700Z,40.40
2017-08-23T12:59:02.158Z,41.90
2017-08-23T13:01:29.648Z,41.60
2017-08-23T13:03:57.140Z,41.60
2017-08-23T13:06:24.631Z,41.40
2017-08-23T13:08:52.127Z,40.70
2017-08-23T13:11:19.618Z,41.60
2017-08-23T13:13:47.112Z,40.80
2017-08-23T13:16:14.600Z,41.70
2017-08-23T13:18:42.085Z,41.60
2017-08-23T13:21:09.571Z,42.00
2017-08-23T13:23:37.040Z,41.20
2017-08-23T13:26:04.561Z,40.70
2017-08-23T13:28:32.051Z,41.00
2017-08-23T13:30:59.535Z,41.50
2017-08-23T13:33:27.015Z,41.40
2017-08-23T13:35:54.494Z,41.50
2017-08-23T13:38:22.011Z,40.80
2017-08-23T13:40:49.535Z,40.80
2017-08-23T13:43:16.998Z,41.40
2017-08-23T13:45:44.538Z,41.80
2017-08-23T13:48:12.008Z,40.50
2017-08-23T13:50:39.500Z,40.80
2017-08-23T13:53:06.964Z,41.00
2017-08-23T13:55:34.470Z,41.00
2017-08-23T13:58:01.951Z,41.70
2017-08-23T14:00:29.431Z,41.30
2017-08-23T14:02:56.939Z,40.30
2017-08-23T14:05:24.407Z,41.00
2017-08-23T14:07:51.931Z,40.80
2017-08-23T14:10:19.386Z,40.80
2017-08-23T14:12:46.874Z,41.30
2017-08-23T14:15:14.375Z,41.90
2017-08-23T14:17:41.835Z,40.50
2017-08-23T14:20:09.346Z,41.60
2017-08-23T14:22:37.588Z,41.50
2017-08-23T14:25:05.103Z,41.30
2017-08-23T14:27:32.583Z,41.00
2017-08-23T14:30:00.055Z,41.90
2017-08-23T14:32:28.426Z,41.10
2017-08-23T14:34:55.890Z,41.70
2017-08-23T14:37:23.378Z,42.90
2017-08-23T14:39:50.857Z,42.10
2017-08-23T14:42:18.324Z,41.90
2017-08-23T14:44:45.814Z,42.10
2017-08-23T14:47:13.279Z,42.40
2017-08-23T14:49:40.765Z,41.00
2017-08-23T14:52:08.264Z,41.70
2017-08-23T14:54:35.746Z,42.00
2017-08-23T14:57:03.227Z,42.00
2017-08-23T14:59:30.683Z,42.10
2017-08-23T15:01:58.175Z,41.50
2017-08-23T15:04:26.400Z,42.30
2017-08-23T15:06:53.911Z,42.30
2017-08-23T15:09:21.403Z,41.70
2017-08-23T15:11:48.899Z,41.30
2017-08-23T15:14:16.367Z,41.70
2017-08-23T15:16:43.844Z,42.40
2017-08-23T15:19:12.113Z,42.20
2017-08-23T15:21:39.608Z,42.20
2017-08-23T15:24:07.082Z,41.90
2017-08-23T15:26:34.551Z,42.20
2017-08-23T15:29:02.092Z,42.00
2017-08-23T15:31:29.571Z,42.20
2017-08-23T15:33:57.064Z,41.90
2017-08-23T15:36:24.577Z,41.80
2017-08-23T15:38:52.067Z,41.90
2017-08-23T15:41:19.557Z,42.10
2017-08-23T15:43:47.039Z,42.30
2017-08-23T15:46:14.559Z,42.20
2017-08-23T15:48:42.025Z,42.60
2017-08-23T15:51:09.507Z,42.20
2017-08-23T15:53:36.989Z,42.40
2017-08-23T15:56:04.443Z,42.20
2017-08-23T15:58:31.947Z,42.60
2017-08-23T16:00:59.449Z,42.40
2017-08-23T16:03:26.932Z,42.40
2017-08-23T16:05:54.451Z,42.30
2017-08-23T16:08:21.906Z,42.10
2017-08-23T16:10:49.418Z,42.30
2017-08-23T16:13:16.883Z,42.40
2017-08-23T16:15:44.402Z,42.00
2017-08-23T16:18:11.897Z,42.30
2017-08-23T16:20:40.311Z,42.30
2017-08-23T16:23:07.815Z,42.50
2017-08-23T16:25:35.284Z,43.00
2017-08-23T16:28:02.968Z,42.30
2017-08-23T16:30:30.490Z,42.90
2017-08-23T16:32:57.954Z,42.80
2017-08-23T16:35:25.460Z,43.20
2017-08-23T16:37:52.936Z,42.70
2017-08-23T16:40:20.420Z,42.70
2017-08-23T16:42:47.916Z,42.20
2017-08-23T16:45:15.400Z,42.80
2017-08-23T16:47:42.926Z,42.70
2017-08-23T16:50:10.390Z,42.90
2017-08-23T16:52:37.860Z,42.50
2017-08-23T16:55:05.350Z,42.70
2017-08-23T16:57:32.820Z,43.40
2017-08-23T17:00:00.338Z,43.40
2017-08-23T17:02:27.821Z,43.70
2017-08-23T17:04:55.279Z,43.50
2017-08-23T17:07:22.770Z,43.50
2017-08-23T17:09:50.268Z,43.60
2017-08-23T17:12:17.762Z,43.70
2017-08-23T17:14:45.239Z,43.50
2017-08-23T17:17:12.746Z,43.40
2017-08-23T17:19:40.210Z,44.00
2017-08-23T17:22:07.666Z,44.40
2017-08-23T17:24:35.170Z,43.80
2017-08-23T17:27:02.668Z,43.70
2017-08-23T17:29:30.186Z,43.80
2017-08-23T17:31:57.658Z,44.80
2017-08-23T17:34:25.106Z,47.20
2017-08-23T17:36:52.619Z,48.90
2017-08-23T17:39:20.080Z,50.00
2017-08-23T17:41:47.575Z,50.30
2017-08-23T17:44:15.137Z,50.70
2017-08-23T17:46:42.659Z,51.20
2017-08-23T17:49:10.155Z,52.10
2017-08-23T17:51:37.640Z,52.40
2017-08-23T17:54:05.162Z,52.60
2017-08-23T17:56:32.655Z,52.80
2017-08-23T17:59:00.144Z,52.70
2017-08-23T18:01:27.637Z,52.80
2017-08-23T18:03:55.126Z,53.10
2017-08-23T18:06:22.658Z,53.30
2017-08-23T18:08:50.125Z,52.60
2017-08-23T18:11:17.606Z,52.90
2017-08-23T18:13:45.628Z,53.30
2017-08-23T18:16:13.094Z,53.30
2017-08-23T18:18:40.599Z,52.90
2017-08-23T18:21:08.085Z,53.20
2017-08-23T18:23:35.587Z,53.40
2017-08-23T18:26:03.091Z,54.00
2017-08-23T18:28:30.545Z,54.20
2017-08-23T18:30:58.054Z,54.40
2017-08-23T18:33:25.531Z,54.60
2017-08-23T18:35:52.995Z,54.20
2017-08-23T18:38:20.513Z,54.00
2017-08-23T18:40:48.001Z,54.10
2017-08-23T18:43:15.521Z,54.20
2017-08-23T18:45:43.008Z,53.80
2017-08-23T18:48:10.483Z,53.90
2017-08-23T18:50:38.037Z,54.00
2017-08-23T18:53:05.494Z,54.10
2017-08-23T18:55:32.971Z,53.30
2017-08-23T18:58:00.466Z,54.10
2017-08-23T19:00:27.981Z,54.10
2017-08-23T19:02:55.460Z,54.40
2017-08-23T19:05:22.935Z,54.00
2017-08-23T19:07:50.434Z,54.30
2017-08-23T19:10:17.892Z,54.40
2017-08-23T19:12:45.407Z,54.60
2017-08-23T19:15:12.865Z,54.20
2017-08-23T19:17:40.342Z,54.70
2017-08-23T19:20:08.624Z,54.50
2017-08-23T19:22:36.108Z,54.20
2017-08-23T19:25:03.571Z,54.20
2017-08-23T19:27:31.075Z,54.20
2017-08-23T19:29:58.552Z,53.80
2017-08-23T19:32:26.060Z,53.40
2017-08-23T19:34:53.541Z,53.90
2017-08-23T19:37:21.062Z,54.10
2017-08-23T19:39:48.546Z,54.10
2017-08-23T19:42:16.027Z,54.00
2017-08-23T19:44:43.522Z,53.70
2017-08-23T19:47:11.031Z,53.70
2017-08-23T19:49:38.539Z,53.50
2017-08-23T19:52:06.017Z,53.40
2017-08-23T19:54:33.478Z,53.40
2017-08-23T19:57:00.978Z,53.40
2017-08-23T19:59:28.435Z,53.50
2017-08-23T20:01:55.960Z,53.70
2017-08-23T20:04:23.472Z,53.40
2017-08-23T20:06:50.955Z,53.60
2017-08-23T20:09:18.440Z,54.40
2017-08-23T20:11:45.924Z,54.50
2017-08-23T20:14:13.458Z,54.70
2017-08-23T20:16:41.697Z,54.10
2017-08-23T20:19:09.227Z,53.70
2017-08-23T20:21:36.739Z,53.60
2017-08-23T20:24:04.215Z,53.40
2017-08-23T20:26:31.704Z,53.20
2017-08-23T20:28:59.183Z,53.20
2017-08-23T20:31:26.663Z,53.80
2017-08-23T20:33:54.136Z,53.50
2017-08-23T20:36:22.354Z,54.10
2017-08-23T20:38:49.871Z,54.00
2017-08-23T20:41:17.352Z,54.70
2017-08-23T20:43:44.840Z,55.00
2017-08-23T20:46:12.433Z,54.90
2017-08-23T20:48:39.951Z,54.60
2017-08-23T20:51:07.446Z,54.20
2017-08-23T20:53:34.959Z,54.10
2017-08-23T20:56:02.465Z,53.90
2017-08-23T20:58:29.920Z,53.40
2017-08-23T21:00:57.389Z,53.70
2017-08-23T21:03:24.894Z,53.70
2017-08-23T21:05:52.370Z,53.20
2017-08-23T21:08:19.904Z,53.50
2017-08-23T21:10:47.364Z,54.20
2017-08-23T21:13:14.841Z,55.10
2017-08-23T21:15:42.467Z,54.40
2017-08-23T21:18:09.954Z,54.60
2017-08-23T21:20:37.478Z,54.30
2017-08-23T21:23:04.980Z,54.50
2017-08-23T21:25:32.460Z,53.90
2017-08-23T21:27:59.978Z,53.60
2017-08-23T21:30:27.451Z,54.00
2017-08-23T21:32:54.932Z,54.50
2017-08-23T21:35:22.419Z,56.00
2017-08-23T21:37:49.892Z,55.90
2017-08-23T21:40:17.378Z,55.00
2017-08-23T21:42:44.839Z,54.40
2017-08-23T21:45:12.310Z,54.50
2017-08-23T21:47:39.808Z,54.60
2017-08-23T21:50:07.262Z,54.70
2017-08-23T21:52:34.771Z,56.60
2017-08-23T21:55:02.247Z,56.60
2017-08-23T21:57:29.736Z,57.50
2017-08-23T21:59:57.235Z,57.20
2017-08-23T22:02:24.732Z,56.10
2017-08-23T22:04:52.212Z,54.90
2017-08-23T22:07:19.679Z,54.90
2017-08-23T22:09:47.170Z,54.30
2017-08-23T22:12:14.652Z,53.90
2017-08-23T22:14:42.132Z,53.60
2017-08-23T22:17:09.640Z,53.80
2017-08-23T22:19:37.130Z,54.40
2017-08-23T22:22:04.667Z,53.80
2017-08-23T22:24:32.129Z,53.60
2017-08-23T22:26:59.619Z,53.70
2017-08-23T22:29:27.075Z,55.40
2017-08-23T22:31:54.575Z,56.00
2017-08-23T22:34:22.050Z,55.00
2017-08-23T22:36:49.515Z,54.90
2017-08-23T22:39:17.019Z,54.90
2017-08-23T22:41:44.475Z,55.20
2017-08-23T22:44:12.738Z,53.50
2017-08-23T22:46:40.206Z,53.50
2017-08-23T22:49:08.496Z,53.60
2017-08-23T22:51:36.024Z,53.50
2017-08-23T22:54:03.487Z,53.60
2017-08-23T22:56:30.984Z,53.90
2017-08-23T22:58:58.450Z,54.40
2017-08-23T23:01:25.948Z,53.90
2017-08-23T23:03:53.426Z,54.90
2017-08-23T23:06:20.908Z,54.40
2017-08-23T23:08:48.418Z,53.90
2017-08-23T23:11:15.867Z,53.60
2017-08-23T23:13:43.358Z,53.80
2017-08-23T23:16:10.852Z,54.00
2017-08-23T23:18:38.342Z,53.70
2017-08-23T23:21:05.835Z,53.40
2017-08-23T23:23:33.306Z,53.30
2017-08-23T23:26:00.806Z,53.20
2017-08-23T23:28:28.296Z,52.80
2017-08-23T23:30:55.760Z,52.70
2017-08-23T23:33:23.283Z,52.90
2017-08-23T23:35:50.747Z,53.00
2017-08-23T23:38:18.232Z,53.00
2017-08-23T23:40:45.686Z,52.90
2017-08-23T23:43:13.209Z,53.20
2017-08-23T23:45:40.671Z,54.00
2017-08-23T23:48:08.145Z,54.70
2017-08-23T23:50:35.634Z,55.20
2017-08-23T23:53:03.108Z,54.50
2017-08-23T23:55:30.575Z,54.00
2017-08-23T23:57:58.052Z,54.00
